sensor_id;sensor_type;location;lat;lon;timestamp;pressure;altitude;pressure_sealevel;temperature;humidity
1736;BME280;865;53.672;10.250;2023-06-04T00:00:26;101859.50;;;8.38;100.00
1736;BME280;865;53.672;10.250;2023-06-04T00:02:53;101862.13;;;8.41;100.00
1736;BME280;865;53.672;10.250;2023-06-04T00:05:19;101852.72;;;8.54;100.00
1736;BME280;865;53.672;10.250;2023-06-04T00:07:47;101856.97;;;8.44;100.00
1736;BME280;865;53.672;10.250;2023-06-04T00:10:16;101845.78;;;8.55;100.00
1736;BME280;865;53.672;10.250;2023-06-04T00:12:43;101852.72;;;8.54;100.00
1736;BME280;865;53.672;10.250;2023-06-04T00:15:10;101847.44;;;8.45;100.00
1736;BME280;865;53.672;10.250;2023-06-04T00:17:37;101850.06;;;8.45;100.00
1736;BME280;865;53.672;10.250;2023-06-04T00:20:03;101844.03;;;8.52;100.00
1736;BME280;865;53.672;10.250;2023-06-04T00:22:30;101838.88;;;8.57;100.00
1736;BME280;865;53.672;10.250;2023-06-04T00:24:56;101840.59;;;8.62;100.00
1736;BME280;865;53.672;10.250;2023-06-04T00:27:23;101837.06;;;8.50;100.00
1736;BME280;865;53.672;10.250;2023-06-04T00:29:49;101837.03;;;8.47;100.00
1736;BME280;865;53.672;10.250;2023-06-04T00:32:17;101845.72;;;8.50;100.00
1736;BME280;865;53.672;10.250;2023-06-04T00:34:50;101840.47;;;8.39;100.00
1736;BME280;865;53.672;10.250;2023-06-04T00:37:17;101844.75;;;8.36;100.00
1736;BME280;865;53.672;10.250;2023-06-04T00:39:44;101837.72;;;8.26;100.00
1736;BME280;865;53.672;10.250;2023-06-04T00:42:10;101837.75;;;8.27;100.00
1736;BME280;865;53.672;10.250;2023-06-04T00:44:37;101839.50;;;8.33;100.00
1736;BME280;865;53.672;10.250;2023-06-04T00:47:03;101836.03;;;8.32;100.00
1736;BME280;865;53.672;10.250;2023-06-04T00:49:30;101835.22;;;8.38;100.00
1736;BME280;865;53.672;10.250;2023-06-04T00:51:56;101836.06;;;8.35;100.00
1736;BME280;865;53.672;10.250;2023-06-04T00:54:23;101843.84;;;8.35;100.00
1736;BME280;865;53.672;10.250;2023-06-04T00:56:50;101839.47;;;8.25;100.00
1736;BME280;865;53.672;10.250;2023-06-04T00:59:17;101839.31;;;8.08;100.00
1736;BME280;865;53.672;10.250;2023-06-04T01:01:55;101836.69;;;8.01;100.00
1736;BME280;865;53.672;10.250;2023-06-04T01:04:30;101827.06;;;7.93;100.00
1736;BME280;865;53.672;10.250;2023-06-04T01:07:00;101834.78;;;7.84;100.00
1736;BME280;865;53.672;10.250;2023-06-04T01:09:29;101833.13;;;7.89;100.00
1736;BME280;865;53.672;10.250;2023-06-04T01:11:57;101843.47;;;7.88;100.00
1736;BME280;865;53.672;10.250;2023-06-04T01:14:25;101836.53;;;7.87;100.00
1736;BME280;865;53.672;10.250;2023-06-04T01:17:06;101833.25;;;8.03;100.00
1736;BME280;865;53.672;10.250;2023-06-04T01:19:56;101834.16;;;8.11;100.00
1736;BME280;865;53.672;10.250;2023-06-04T01:25:02;101832.16;;;7.81;100.00
1736;BME280;865;53.672;10.250;2023-06-04T01:27:31;101837.28;;;7.70;100.00
1736;BME280;865;53.672;10.250;2023-06-04T01:29:59;101841.44;;;7.56;100.00
1736;BME280;865;53.672;10.250;2023-06-04T01:32:27;101835.41;;;7.57;100.00
1736;BME280;865;53.672;10.250;2023-06-04T01:34:54;101842.34;;;7.60;100.00
1736;BME280;865;53.672;10.250;2023-06-04T01:37:20;101838.84;;;7.58;100.00
1736;BME280;865;53.672;10.250;2023-06-04T01:39:47;101838.88;;;7.59;100.00
1736;BME280;865;53.672;10.250;2023-06-04T01:42:13;101844.09;;;7.64;100.00
1736;BME280;865;53.672;10.250;2023-06-04T01:44:40;101841.50;;;7.62;100.00
1736;BME280;865;53.672;10.250;2023-06-04T01:47:07;101837.88;;;7.46;100.00
1736;BME280;865;53.672;10.250;2023-06-04T01:49:34;101839.63;;;7.49;100.00
1736;BME280;865;53.672;10.250;2023-06-04T01:52:00;101839.53;;;7.40;100.00
1736;BME280;865;53.672;10.250;2023-06-04T01:54:26;101843.19;;;7.57;100.00
1736;BME280;865;53.672;10.250;2023-06-04T01:56:53;101833.72;;;7.64;100.00
1736;BME280;865;53.672;10.250;2023-06-04T01:59:20;101837.84;;;7.43;100.00
1736;BME280;865;53.672;10.250;2023-06-04T02:01:47;101841.41;;;7.53;100.00
1736;BME280;865;53.672;10.250;2023-06-04T02:04:14;101841.38;;;7.50;100.00
1736;BME280;865;53.672;10.250;2023-06-04T02:06:40;101837.84;;;7.43;100.00
1736;BME280;865;53.672;10.250;2023-06-04T02:09:07;101837.75;;;7.37;100.00
1736;BME280;865;53.672;10.250;2023-06-04T02:11:33;101837.88;;;7.45;100.00
1736;BME280;865;53.672;10.250;2023-06-04T02:13:59;101847.41;;;7.47;100.00
1736;BME280;865;53.672;10.250;2023-06-04T02:16:26;101836.94;;;7.38;100.00
1736;BME280;865;53.672;10.250;2023-06-04T02:18:53;101834.41;;;7.46;100.00
1736;BME280;865;53.672;10.250;2023-06-04T02:21:19;101837.84;;;7.42;100.00
1736;BME280;865;53.672;10.250;2023-06-04T02:23:46;101842.94;;;7.34;100.00
1736;BME280;865;53.672;10.250;2023-06-04T02:26:12;101843.72;;;7.27;100.00
1736;BME280;865;53.672;10.250;2023-06-04T02:28:39;101845.38;;;7.22;100.00
1736;BME280;865;53.672;10.250;2023-06-04T02:31:06;101844.50;;;7.21;100.00
1736;BME280;865;53.672;10.250;2023-06-04T02:33:33;101850.81;;;7.43;100.00
1736;BME280;865;53.672;10.250;2023-06-04T02:35:59;101843.78;;;7.35;100.00
1736;BME280;865;53.672;10.250;2023-06-04T02:38:26;101839.47;;;7.34;100.00
1736;BME280;865;53.672;10.250;2023-06-04T02:40:53;101831.53;;;7.21;100.00
1736;BME280;865;53.672;10.250;2023-06-04T02:43:19;101836.63;;;7.14;100.00
1736;BME280;865;53.672;10.250;2023-06-04T02:45:46;101848.63;;;7.04;100.00
1736;BME280;865;53.672;10.250;2023-06-04T02:48:12;101833.16;;;7.13;100.00
1736;BME280;865;53.672;10.250;2023-06-04T02:50:39;101841.03;;;7.19;100.00
1736;BME280;865;53.672;10.250;2023-06-04T02:53:08;101839.28;;;7.18;100.00
1736;BME280;865;53.672;10.250;2023-06-04T02:55:35;101838.25;;;7.02;100.00
1736;BME280;865;53.672;10.250;2023-06-04T02:58:02;101844.41;;;7.14;100.00
1736;BME280;865;53.672;10.250;2023-06-04T03:00:29;101843.47;;;7.07;100.00
1736;BME280;865;53.672;10.250;2023-06-04T03:02:55;101845.00;;;6.93;100.00
1736;BME280;865;53.672;10.250;2023-06-04T03:05:28;101840.53;;;6.79;100.00
1736;BME280;865;53.672;10.250;2023-06-04T03:08:00;101841.47;;;6.86;100.00
1736;BME280;865;53.672;10.250;2023-06-04T03:10:29;101837.16;;;6.87;100.00
1736;BME280;865;53.672;10.250;2023-06-04T03:12:56;101845.84;;;6.89;100.00
1736;BME280;865;53.672;10.250;2023-06-04T03:15:22;101842.38;;;6.90;100.00
1736;BME280;865;53.672;10.250;2023-06-04T03:17:49;101842.25;;;6.80;100.00
1736;BME280;865;53.672;10.250;2023-06-04T03:20:18;101839.66;;;6.80;100.00
1736;BME280;865;53.672;10.250;2023-06-04T03:22:44;101842.22;;;6.77;100.00
1736;BME280;865;53.672;10.250;2023-06-04T03:25:11;101835.38;;;6.84;100.00
1736;BME280;865;53.672;10.250;2023-06-04T03:27:37;101829.34;;;6.82;100.00
1736;BME280;865;53.672;10.250;2023-06-04T03:30:04;101829.94;;;6.64;100.00
1736;BME280;865;53.672;10.250;2023-06-04T03:32:31;101838.72;;;6.72;100.00
1736;BME280;865;53.672;10.250;2023-06-04T03:35:00;101844.03;;;6.81;100.00
1736;BME280;865;53.672;10.250;2023-06-04T03:37:26;101839.50;;;6.67;100.00
1736;BME280;865;53.672;10.250;2023-06-04T03:39:53;101839.31;;;6.54;100.00
1736;BME280;865;53.672;10.250;2023-06-04T03:42:19;101842.69;;;6.49;100.00
1736;BME280;865;53.672;10.250;2023-06-04T03:44:46;101843.69;;;6.60;100.00
1736;BME280;865;53.672;10.250;2023-06-04T03:47:13;101841.34;;;6.77;100.00
1736;BME280;865;53.672;10.250;2023-06-04T03:49:39;101837.16;;;6.85;100.00
1736;BME280;865;53.672;10.250;2023-06-04T03:52:06;101834.66;;;6.94;100.00
1736;BME280;865;53.672;10.250;2023-06-04T03:54:32;101832.19;;;7.03;100.00
1736;BME280;865;53.672;10.250;2023-06-04T03:56:59;101827.97;;;7.13;100.00
1736;BME280;865;53.672;10.250;2023-06-04T03:59:26;101826.22;;;7.09;100.00
1736;BME280;865;53.672;10.250;2023-06-04T04:01:53;101830.53;;;7.08;100.00
1736;BME280;865;53.672;10.250;2023-06-04T04:04:19;101828.28;;;7.38;100.00
1736;BME280;865;53.672;10.250;2023-06-04T04:06:46;101826.38;;;7.23;100.00
1736;BME280;865;53.672;10.250;2023-06-04T04:09:12;101829.81;;;7.20;100.00
1736;BME280;865;53.672;10.250;2023-06-04T04:11:38;101832.38;;;7.17;100.00
1736;BME280;865;53.672;10.250;2023-06-04T04:14:05;101839.41;;;7.27;100.00
1736;BME280;865;53.672;10.250;2023-06-04T04:16:32;101841.06;;;7.22;100.00
1736;BME280;865;53.672;10.250;2023-06-04T04:18:58;101845.41;;;7.25;100.00
1736;BME280;865;53.672;10.250;2023-06-04T04:21:25;101852.41;;;7.30;100.00
1736;BME280;865;53.672;10.250;2023-06-04T04:23:51;101848.00;;;7.23;100.00
1736;BME280;865;53.672;10.250;2023-06-04T04:26:18;101854.09;;;7.28;100.00
1736;BME280;865;53.672;10.250;2023-06-04T04:28:45;101857.75;;;7.44;100.00
1736;BME280;865;53.672;10.250;2023-06-04T04:31:11;101856.19;;;7.59;100.00
1736;BME280;865;53.672;10.250;2023-06-04T04:33:38;101854.47;;;7.61;100.00
1736;BME280;865;53.672;10.250;2023-06-04T04:36:07;101847.78;;;7.84;100.00
1736;BME280;865;53.672;10.250;2023-06-04T04:38:39;101856.56;;;7.98;100.00
1736;BME280;865;53.672;10.250;2023-06-04T04:41:06;101862.72;;;8.08;100.00
1736;BME280;865;53.672;10.250;2023-06-04T04:43:36;101852.47;;;8.27;100.00
1736;BME280;865;53.672;10.250;2023-06-04T04:46:04;101847.16;;;8.14;100.00
1736;BME280;865;53.672;10.250;2023-06-04T04:48:31;101849.84;;;8.27;100.00
1736;BME280;865;53.672;10.250;2023-06-04T04:50:58;101843.13;;;8.49;100.00
1736;BME280;865;53.672;10.250;2023-06-04T04:53:26;101845.91;;;8.78;100.00
1736;BME280;865;53.672;10.250;2023-06-04T04:55:52;101839.94;;;8.97;100.00
1736;BME280;865;53.672;10.250;2023-06-04T04:58:19;101836.53;;;9.18;100.00
1736;BME280;865;53.672;10.250;2023-06-04T05:00:46;101828.81;;;9.41;100.00
1736;BME280;865;53.672;10.250;2023-06-04T05:03:14;101833.22;;;9.77;100.00
1736;BME280;865;53.672;10.250;2023-06-04T05:05:40;101827.16;;;10.08;100.00
1736;BME280;865;53.672;10.250;2023-06-04T05:08:08;101825.44;;;10.34;100.00
1736;BME280;865;53.672;10.250;2023-06-04T05:10:35;101825.38;;;10.66;100.00
1736;BME280;865;53.672;10.250;2023-06-04T05:13:02;101830.59;;;10.62;100.00
1736;BME280;865;53.672;10.250;2023-06-04T05:15:29;101827.00;;;10.97;100.00
1736;BME280;865;53.672;10.250;2023-06-04T05:17:55;101828.63;;;11.24;100.00
1736;BME280;865;53.672;10.250;2023-06-04T05:20:22;101831.94;;;11.56;100.00
1736;BME280;865;53.672;10.250;2023-06-04T05:22:49;101831.75;;;11.85;100.00
1736;BME280;865;53.672;10.250;2023-06-04T05:25:16;101835.94;;;12.09;100.00
1736;BME280;865;53.672;10.250;2023-06-04T05:27:43;101839.41;;;12.10;100.00
1736;BME280;865;53.672;10.250;2023-06-04T05:30:10;101839.31;;;12.21;100.00
1736;BME280;865;53.672;10.250;2023-06-04T05:32:37;101841.06;;;12.19;100.00
1736;BME280;865;53.672;10.250;2023-06-04T05:35:08;101832.59;;;11.94;100.00
1736;BME280;865;53.672;10.250;2023-06-04T05:37:36;101841.97;;;12.16;100.00
1736;BME280;865;53.672;10.250;2023-06-04T05:40:05;101839.38;;;12.13;100.00
1736;BME280;865;53.672;10.250;2023-06-04T05:42:31;101840.22;;;12.20;100.00
1736;BME280;865;53.672;10.250;2023-06-04T05:44:58;101846.28;;;12.23;100.00
1736;BME280;865;53.672;10.250;2023-06-04T05:47:27;101845.25;;;12.40;100.00
1736;BME280;865;53.672;10.250;2023-06-04T05:49:55;101843.53;;;12.39;100.00
1736;BME280;865;53.672;10.250;2023-06-04T05:52:22;101845.19;;;12.47;100.00
1736;BME280;865;53.672;10.250;2023-06-04T05:54:49;101842.44;;;12.61;100.00
1736;BME280;865;53.672;10.250;2023-06-04T05:57:16;101839.66;;;12.76;100.00
1736;BME280;865;53.672;10.250;2023-06-04T05:59:42;101843.63;;;13.10;100.00
1736;BME280;865;53.672;10.250;2023-06-04T06:02:09;101834.03;;;13.09;100.00
1736;BME280;865;53.672;10.250;2023-06-04T06:04:35;101833.16;;;13.10;100.00
1736;BME280;865;53.672;10.250;2023-06-04T06:07:03;101839.94;;;13.26;100.00
1736;BME280;865;53.672;10.250;2023-06-04T06:09:29;101839.81;;;13.37;100.00
1736;BME280;865;53.672;10.250;2023-06-04T06:11:56;101840.84;;;13.27;100.00
1736;BME280;865;53.672;10.250;2023-06-04T06:14:23;101840.97;;;13.11;100.00
1736;BME280;865;53.672;10.250;2023-06-04T06:16:50;101847.53;;;13.46;100.00
1736;BME280;865;53.672;10.250;2023-06-04T06:19:17;101845.19;;;13.28;100.00
1736;BME280;865;53.672;10.250;2023-06-04T06:21:45;101854.59;;;13.42;100.00
1736;BME280;865;53.672;10.250;2023-06-04T06:24:13;101849.78;;;13.72;100.00
1736;BME280;865;53.672;10.250;2023-06-04T06:26:40;101852.13;;;13.89;100.00
1736;BME280;865;53.672;10.250;2023-06-04T06:29:07;101850.47;;;13.86;100.00
1736;BME280;865;53.672;10.250;2023-06-04T06:31:33;101853.09;;;13.85;100.00
1736;BME280;865;53.672;10.250;2023-06-04T06:34:00;101853.59;;;14.10;100.00
1736;BME280;865;53.672;10.250;2023-06-04T06:36:27;101852.31;;;14.32;100.00
1736;BME280;865;53.672;10.250;2023-06-04T06:38:54;101860.66;;;14.05;100.00
1736;BME280;865;53.672;10.250;2023-06-04T06:41:21;101858.09;;;14.02;100.00
1736;BME280;865;53.672;10.250;2023-06-04T06:43:47;101855.66;;;14.41;100.00
1736;BME280;865;53.672;10.250;2023-06-04T06:46:14;101866.56;;;14.69;100.00
1736;BME280;865;53.672;10.250;2023-06-04T06:48:41;101864.72;;;14.74;100.00
1736;BME280;865;53.672;10.250;2023-06-04T06:51:12;101868.00;;;14.37;100.00
1736;BME280;865;53.672;10.250;2023-06-04T06:53:38;101865.00;;;14.58;100.00
1736;BME280;865;53.672;10.250;2023-06-04T06:56:06;101863.13;;;14.67;100.00
1736;BME280;865;53.672;10.250;2023-06-04T06:58:32;101864.47;;;14.86;100.00
1736;BME280;865;53.672;10.250;2023-06-04T07:00:59;101861.41;;;15.08;100.00
1736;BME280;865;53.672;10.250;2023-06-04T07:03:26;101873.09;;;14.93;100.00
1736;BME280;865;53.672;10.250;2023-06-04T07:05:53;101866.66;;;14.64;100.00
1736;BME280;865;53.672;10.250;2023-06-04T07:08:19;101866.91;;;14.49;100.00
1736;BME280;865;53.672;10.250;2023-06-04T07:10:47;101879.91;;;14.56;100.00
1736;BME280;865;53.672;10.250;2023-06-04T07:13:13;101871.38;;;14.92;100.00
1736;BME280;865;53.672;10.250;2023-06-04T07:15:40;101879.00;;;15.06;100.00
1736;BME280;865;53.672;10.250;2023-06-04T07:18:07;101873.25;;;15.28;100.00
1736;BME280;865;53.672;10.250;2023-06-04T07:20:34;101873.31;;;15.27;100.00
1736;BME280;865;53.672;10.250;2023-06-04T07:23:00;101874.84;;;14.94;100.00
1736;BME280;865;53.672;10.250;2023-06-04T07:25:27;101874.38;;;15.17;100.00
1736;BME280;865;53.672;10.250;2023-06-04T07:27:54;101871.00;;;15.12;100.00
1736;BME280;865;53.672;10.250;2023-06-04T07:30:25;101874.13;;;15.29;100.00
1736;BME280;865;53.672;10.250;2023-06-04T07:32:52;101881.09;;;15.72;100.00
1736;BME280;865;53.672;10.250;2023-06-04T07:35:19;101872.47;;;15.65;100.00
1736;BME280;865;53.672;10.250;2023-06-04T07:37:49;101875.03;;;15.67;100.00
1736;BME280;865;53.672;10.250;2023-06-04T07:40:16;101871.75;;;15.98;100.00
1736;BME280;865;53.672;10.250;2023-06-04T07:42:46;101882.69;;;15.79;100.00
1736;BME280;865;53.672;10.250;2023-06-04T07:45:16;101873.94;;;15.79;100.00
1736;BME280;865;53.672;10.250;2023-06-04T07:47:43;101873.00;;;15.81;100.00
1736;BME280;865;53.672;10.250;2023-06-04T07:50:10;101873.56;;;15.94;100.00
1736;BME280;865;53.672;10.250;2023-06-04T07:52:36;101877.53;;;15.75;100.00
1736;BME280;865;53.672;10.250;2023-06-04T07:55:04;101868.09;;;16.03;100.00
1736;BME280;865;53.672;10.250;2023-06-04T07:57:31;101879.19;;;16.16;100.00
1736;BME280;865;53.672;10.250;2023-06-04T07:59:58;101867.59;;;16.23;100.00
1736;BME280;865;53.672;10.250;2023-06-04T08:02:25;101870.81;;;16.34;100.00
1736;BME280;865;53.672;10.250;2023-06-04T08:04:52;101871.59;;;15.65;100.00
1736;BME280;865;53.672;10.250;2023-06-04T08:07:18;101874.78;;;15.81;100.00
1736;BME280;865;53.672;10.250;2023-06-04T08:09:45;101869.97;;;15.98;100.00
1736;BME280;865;53.672;10.250;2023-06-04T08:12:11;101873.00;;;16.18;100.00
1736;BME280;865;53.672;10.250;2023-06-04T08:14:38;101869.03;;;16.36;100.00
1736;BME280;865;53.672;10.250;2023-06-04T08:17:05;101872.72;;;16.62;100.00
1736;BME280;865;53.672;10.250;2023-06-04T08:19:31;101872.13;;;16.87;100.00
1736;BME280;865;53.672;10.250;2023-06-04T08:22:03;101879.75;;;16.63;100.00
1736;BME280;865;53.672;10.250;2023-06-04T08:24:30;101879.44;;;16.74;100.00
1736;BME280;865;53.672;10.250;2023-06-04T08:26:56;101879.63;;;17.00;100.00
1736;BME280;865;53.672;10.250;2023-06-04T08:29:23;101884.13;;;16.97;100.00
1736;BME280;865;53.672;10.250;2023-06-04T08:31:49;101879.31;;;16.80;100.00
1736;BME280;865;53.672;10.250;2023-06-04T08:34:16;101877.63;;;16.77;100.00
1736;BME280;865;53.672;10.250;2023-06-04T08:36:43;101885.91;;;16.95;100.00
1736;BME280;865;53.672;10.250;2023-06-04T08:39:10;101875.84;;;17.40;100.00
1736;BME280;865;53.672;10.250;2023-06-04T08:41:48;101889.66;;;16.88;100.00
1736;BME280;865;53.672;10.250;2023-06-04T08:44:16;101881.91;;;16.81;100.00
1736;BME280;865;53.672;10.250;2023-06-04T08:46:44;101884.13;;;16.97;100.00
1736;BME280;865;53.672;10.250;2023-06-04T08:49:13;101872.84;;;17.23;100.00
1736;BME280;865;53.672;10.250;2023-06-04T08:51:40;101871.22;;;17.47;100.00
1736;BME280;865;53.672;10.250;2023-06-04T08:54:08;101883.34;;;16.93;98.83
1736;BME280;865;53.672;10.250;2023-06-04T08:56:35;101877.03;;;16.99;96.91
1736;BME280;865;53.672;10.250;2023-06-04T08:59:05;101874.00;;;17.13;90.57
1736;BME280;865;53.672;10.250;2023-06-04T09:01:35;101862.66;;;17.11;83.78
1736;BME280;865;53.672;10.250;2023-06-04T09:04:05;101872.59;;;17.30;79.78
1736;BME280;865;53.672;10.250;2023-06-04T09:06:37;101881.22;;;17.06;83.50
1736;BME280;865;53.672;10.250;2023-06-04T09:09:09;101877.94;;;17.29;81.16
1736;BME280;865;53.672;10.250;2023-06-04T09:11:41;101875.97;;;17.64;87.07
1736;BME280;865;53.672;10.250;2023-06-04T09:14:14;101880.47;;;17.62;82.71
1736;BME280;865;53.672;10.250;2023-06-04T09:16:50;101878.19;;;17.49;79.75
1736;BME280;865;53.672;10.250;2023-06-04T09:19:18;101885.41;;;17.43;73.14
1736;BME280;865;53.672;10.250;2023-06-04T09:21:50;101886.69;;;17.29;77.33
1736;BME280;865;53.672;10.250;2023-06-04T09:24:24;101883.31;;;17.54;90.23
1736;BME280;865;53.672;10.250;2023-06-04T09:26:51;101887.09;;;18.03;82.66
1736;BME280;865;53.672;10.250;2023-06-04T09:29:18;101887.41;;;17.64;75.20
1736;BME280;865;53.672;10.250;2023-06-04T09:31:46;101880.78;;;17.81;78.05
1736;BME280;865;53.672;10.250;2023-06-04T09:34:14;101884.47;;;18.30;77.07
1736;BME280;865;53.672;10.250;2023-06-04T09:36:41;101890.16;;;18.17;78.40
1736;BME280;865;53.672;10.250;2023-06-04T09:39:17;101889.53;;;18.09;76.07
1736;BME280;865;53.672;10.250;2023-06-04T09:41:44;101887.34;;;17.95;72.41
1736;BME280;865;53.672;10.250;2023-06-04T09:44:22;101897.34;;;18.39;74.68
1736;BME280;865;53.672;10.250;2023-06-04T09:46:56;101898.34;;;18.08;66.53
1736;BME280;865;53.672;10.250;2023-06-04T09:49:23;101894.19;;;18.54;68.14
1736;BME280;865;53.672;10.250;2023-06-04T09:51:50;101887.72;;;18.88;65.35
1736;BME280;865;53.672;10.250;2023-06-04T09:54:17;101883.03;;;18.96;62.21
1736;BME280;865;53.672;10.250;2023-06-04T09:56:43;101880.97;;;19.04;64.15
1736;BME280;865;53.672;10.250;2023-06-04T09:59:10;101886.03;;;18.87;61.21
1736;BME280;865;53.672;10.250;2023-06-04T10:01:39;101884.88;;;18.69;59.59
1736;BME280;865;53.672;10.250;2023-06-04T10:04:08;101889.25;;;18.95;62.45
1736;BME280;865;53.672;10.250;2023-06-04T10:06:38;101869.84;;;18.95;61.61
1736;BME280;865;53.672;10.250;2023-06-04T10:09:06;101863.66;;;18.96;59.42
1736;BME280;865;53.672;10.250;2023-06-04T10:11:53;101874.81;;;18.80;62.00
1736;BME280;865;53.672;10.250;2023-06-04T10:14:25;101876.25;;;18.89;66.15
1736;BME280;865;53.672;10.250;2023-06-04T10:16:53;101869.59;;;19.26;61.23
1736;BME280;865;53.672;10.250;2023-06-04T10:19:23;101862.50;;;19.03;57.93
1736;BME280;865;53.672;10.250;2023-06-04T10:21:50;101866.25;;;19.21;56.18
1736;BME280;865;53.672;10.250;2023-06-04T10:24:17;101866.94;;;19.49;57.62
1736;BME280;865;53.672;10.250;2023-06-04T10:26:44;101860.72;;;19.27;57.24
1736;BME280;865;53.672;10.250;2023-06-04T10:29:11;101864.38;;;18.76;58.83
1736;BME280;865;53.672;10.250;2023-06-04T10:31:39;101861.13;;;18.93;58.63
1736;BME280;865;53.672;10.250;2023-06-04T10:34:07;101860.66;;;18.81;62.79
1736;BME280;865;53.672;10.250;2023-06-04T10:36:42;101867.88;;;19.01;62.55
1736;BME280;865;53.672;10.250;2023-06-04T10:39:10;101860.19;;;19.19;59.17
1736;BME280;865;53.672;10.250;2023-06-04T10:41:37;101871.78;;;18.64;58.71
1736;BME280;865;53.672;10.250;2023-06-04T10:44:03;101874.28;;;18.69;58.63
1736;BME280;865;53.672;10.250;2023-06-04T10:46:40;101874.63;;;18.85;58.41
1736;BME280;865;53.672;10.250;2023-06-04T10:49:09;101868.44;;;18.86;59.52
1736;BME280;865;53.672;10.250;2023-06-04T10:51:37;101873.16;;;19.01;60.07
1736;BME280;865;53.672;10.250;2023-06-04T10:54:04;101878.72;;;18.94;58.01
1736;BME280;865;53.672;10.250;2023-06-04T10:56:33;101881.19;;;18.48;57.93
1736;BME280;865;53.672;10.250;2023-06-04T10:59:13;101879.94;;;19.08;57.87
1736;BME280;865;53.672;10.250;2023-06-04T11:01:40;101870.63;;;18.98;55.41
1736;BME280;865;53.672;10.250;2023-06-04T11:04:23;101871.66;;;19.65;56.75
1736;BME280;865;53.672;10.250;2023-06-04T11:09:31;101879.97;;;19.99;51.30
1736;BME280;865;53.672;10.250;2023-06-04T11:12:00;101879.13;;;19.99;55.61
1736;BME280;865;53.672;10.250;2023-06-04T11:14:27;101877.41;;;20.18;52.67
1736;BME280;865;53.672;10.250;2023-06-04T11:16:53;101874.00;;;19.94;51.01
1736;BME280;865;53.672;10.250;2023-06-04T11:19:20;101868.19;;;20.07;51.29
1736;BME280;865;53.672;10.250;2023-06-04T11:21:47;101868.16;;;20.29;52.96
1736;BME280;865;53.672;10.250;2023-06-04T11:24:14;101867.03;;;20.14;51.33
1736;BME280;865;53.672;10.250;2023-06-04T11:26:42;101862.53;;;20.36;53.33
1736;BME280;865;53.672;10.250;2023-06-04T11:29:19;101862.75;;;20.52;52.81
1736;BME280;865;53.672;10.250;2023-06-04T11:31:46;101860.53;;;20.41;50.68
1736;BME280;865;53.672;10.250;2023-06-04T11:34:27;101856.81;;;20.25;52.17
1736;BME280;865;53.672;10.250;2023-06-04T11:36:54;101855.50;;;20.15;53.49
1736;BME280;865;53.672;10.250;2023-06-04T11:39:22;101858.34;;;20.31;60.28
1736;BME280;865;53.672;10.250;2023-06-04T11:41:50;101847.31;;;20.62;54.56
1736;BME280;865;53.672;10.250;2023-06-04T11:44:20;101843.28;;;20.52;54.44
1736;BME280;865;53.672;10.250;2023-06-04T11:46:47;101839.91;;;20.27;53.58
1736;BME280;865;53.672;10.250;2023-06-04T11:49:15;101836.28;;;20.30;58.07
1736;BME280;865;53.672;10.250;2023-06-04T11:51:49;101839.63;;;20.56;55.58
1736;BME280;865;53.672;10.250;2023-06-04T11:54:18;101841.09;;;19.78;54.41
1736;BME280;865;53.672;10.250;2023-06-04T11:56:45;101845.28;;;19.84;52.29
1736;BME280;865;53.672;10.250;2023-06-04T11:59:14;101848.28;;;19.52;52.99
1736;BME280;865;53.672;10.250;2023-06-04T12:01:42;101846.63;;;19.72;54.68
1736;BME280;865;53.672;10.250;2023-06-04T12:04:13;101847.28;;;20.21;54.71
1736;BME280;865;53.672;10.250;2023-06-04T12:06:57;101842.38;;;20.73;53.16
1736;BME280;865;53.672;10.250;2023-06-04T12:09:30;101858.69;;;20.84;51.29
1736;BME280;865;53.672;10.250;2023-06-04T12:12:07;101846.16;;;20.47;52.18
1736;BME280;865;53.672;10.250;2023-06-04T12:14:34;101840.72;;;20.30;52.22
1736;BME280;865;53.672;10.250;2023-06-04T12:17:05;101845.75;;;20.36;53.75
1736;BME280;865;53.672;10.250;2023-06-04T12:19:32;101850.22;;;20.35;52.65
1736;BME280;865;53.672;10.250;2023-06-04T12:22:07;101852.59;;;20.82;51.27
1736;BME280;865;53.672;10.250;2023-06-04T12:24:35;101846.47;;;21.01;50.79
1736;BME280;865;53.672;10.250;2023-06-04T12:27:12;101846.31;;;21.04;50.61
1736;BME280;865;53.672;10.250;2023-06-04T12:29:39;101845.09;;;20.71;48.77
1736;BME280;865;53.672;10.250;2023-06-04T12:32:07;101838.91;;;20.91;50.76
1736;BME280;865;53.672;10.250;2023-06-04T12:34:38;101846.13;;;20.88;49.39
1736;BME280;865;53.672;10.250;2023-06-04T12:37:05;101835.28;;;21.13;47.83
1736;BME280;865;53.672;10.250;2023-06-04T12:39:35;101841.84;;;20.24;46.64
1736;BME280;865;53.672;10.250;2023-06-04T12:42:05;101835.22;;;20.34;49.09
1736;BME280;865;53.672;10.250;2023-06-04T12:44:33;101831.25;;;20.85;48.26
1736;BME280;865;53.672;10.250;2023-06-04T12:47:01;101822.00;;;21.13;47.43
1736;BME280;865;53.672;10.250;2023-06-04T12:49:28;101827.38;;;20.92;47.25
1736;BME280;865;53.672;10.250;2023-06-04T12:51:55;101836.81;;;20.38;47.60
1736;BME280;865;53.672;10.250;2023-06-04T12:54:21;101828.34;;;20.30;46.82
1736;BME280;865;53.672;10.250;2023-06-04T12:56:48;101818.91;;;20.43;47.93
1736;BME280;865;53.672;10.250;2023-06-04T12:59:15;101828.16;;;20.55;47.52
1736;BME280;865;53.672;10.250;2023-06-04T13:01:42;101821.06;;;21.14;48.53
1736;BME280;865;53.672;10.250;2023-06-04T13:04:09;101822.63;;;21.56;45.68
1736;BME280;865;53.672;10.250;2023-06-04T13:06:35;101819.22;;;21.54;46.72
1736;BME280;865;53.672;10.250;2023-06-04T13:09:04;101817.63;;;21.31;45.37
1736;BME280;865;53.672;10.250;2023-06-04T13:11:40;101817.34;;;21.18;47.80
1736;BME280;865;53.672;10.250;2023-06-04T13:14:07;101810.75;;;20.89;47.25
1736;BME280;865;53.672;10.250;2023-06-04T13:16:33;101824.53;;;20.97;45.93